enterpriseappstoday.com alexa rank chart, enterpriseappstoday.com alexa rank daily changes

enterpriseappstoday.com alexa rank chart, enterpriseappstoday.com alexa rank daily changes

enterpriseappstoday.com
Actual rank:
334 335

RANK HISTORY

Date Rank Diff
2017/02/23 334 335 -2 089
2017/02/22 336 424 -9 742
2017/02/21 346 166 -3 671
2017/02/20 349 837 -5 205
2017/02/19 355 042 +15 426
2017/02/18 339 616 -6 174
2017/02/17 345 790 +3 668
2017/02/16 342 122 -11 073
2017/02/15 353 195 -7 377
2017/02/14 360 572 +3 456
2017/02/13 357 116 +13 603
2017/02/12 343 513 +1 241
2017/02/11 342 272 +3 940
2017/02/10 338 332 -5 079
2017/02/09 343 411 -9 017
2017/02/08 352 428 -182
2017/02/07 352 610 -6 258
2017/02/06 358 868 +10 345
2017/02/05 348 523 +3 841
2017/02/04 344 682 -1 377
2017/02/03 346 059 +2 011
2017/02/02 344 048 +2 889
2017/02/01 341 159 +1 704
2017/01/31 339 455 +13 507
2017/01/30 325 948 +631
2017/01/29 325 317 -1 326
2017/01/28 326 643 -4 377
2017/01/27 331 020 -960
2017/01/26 331 980 +1 657
2017/01/25 330 323 -11 154
2017/01/24 341 477 +5 079
2017/01/23 336 398 +1 562
2017/01/22 334 836 +4 758
2017/01/21 330 078 +2 994
2017/01/20 327 084 -886
2017/01/19 327 970 -9 543
2017/01/18 337 513 -894
2017/01/17 338 407 -5 379
2017/01/16 343 786 -1 317
2017/01/15 345 103 -10 537
2017/01/14 355 640 +15 882
2017/01/13 339 758 -4 122
2017/01/12 343 880 +928
2017/01/11 342 952 +4 307
2017/01/10 338 645 +6 307
2017/01/09 332 338 -1 423
2017/01/08 333 761 +10 251
2017/01/07 323 510 +4 678
2017/01/06 318 832 -6 801
2017/01/05 325 633 +3 499
2017/01/04 322 134 +6 080
2017/01/03 316 054 +420
2017/01/02 315 634 +2 132
2017/01/01 313 502 +4 275
2016/12/31 309 227 -6 963
2016/12/30 316 190 -3 631
2016/12/29 319 821 -5 927
2016/12/28 325 748 +3 438
2016/12/27 322 310 -1 553
2016/12/26 323 863 +7 553
2016/12/25 316 310

WIDGET FOR YOUR SITE

DOMAINS WITH THE NEAREST RANK

Domain Rank
pagereboot.com 334 330
alarmeringen.nl 334 331
anonimidellacroce.wordpress.com 334 332
cartoonnetwork.bg 334 333
weblogtemplates.net 334 334
enterpriseappstoday.com 334 335
exshop.com.tw 334 336
ya-romantik.ru 334 337
music-app.co 334 338
novia.fi 334 339
bloggingshout.com 334 340

DOMAINS WITH THE NEAREST RANK BY TLD .com

Domain Rank
prazdelys-sommand.com 334 323
thelala.com 334 325
dtgre.com 334 326
batamtoday.com 334 328
pagereboot.com 334 330
enterpriseappstoday.com 334 335
bloggingshout.com 334 340
thebftonline.com 334 342
august-soft.com 334 346
mobilesflashing.com 334 347
smitela.com 334 348